Airfield :
LOGIN :

Register | Disclaimer

   EN    FR    IT 

 










Legend :    VFR   Marginal VFR   IFR   Intensive IFR   Very Intensive IFR
Visi :
Ceiling :
>= 8 km
>= 3000ft
5 to 8 km
1000 to 3000 ft
1500m to 5 km
500 to 1000 ft
800 to 1500m
200 to 500 ft
< 800m
< 200 ft
Symbols :   Thunderstorms  Fog  Heavy snow  Heavy precipitations  Wind > 20 kt
SIGMETs :     Misc.  Thunderstorms  Icing  Turbulence  Mountain Waves  Volcanic Ashes






- Airport Elevation : 63 ft
- IATA code : BZM


EHWO - Woensdrecht Airbase

CURRENT METAR :
  • 161856Z AUTO 19008KT 130V230 9999 DZRA FEW007 SCT008 BKN010 14/14 Q1005 GRN

EXPIRED METARs :
  • 161836Z AUTO 19006KT 150V240 9999 +DZRA FEW006 SCT007 BKN009 14/14 Q1005 GRN
  • 161834Z AUTO 19006KT 150V240 9999 -RA FEW006 SCT008 BKN011 14/14 Q1005 GRN
  • 161813Z AUTO 20008KT 140V230 9999 -RA FEW007 SCT008 BKN010 BKN015CB 15/14 Q1005 GRN
  • 161755Z AUTO 20009KT 160V250 9000 RA FEW007 SCT009 BKN010 SCT015CB 15/14 Q1006 GRN
  • 161725Z AUTO 20009KT 160V240 9999 -RA SCT007 BKN009 BKN010 15/14 Q1005 RERA REDZ GRN
  • 161712Z AUTO 20008KT 150V240 9999 -RA FEW007 BKN008 BKN010 15/14 Q1005 GRN
  • 161657Z AUTO 20008KT 170V240 9999 +DZRA FEW007 SCT008 BKN009 15/14 Q1005 GRN
  • 161655Z AUTO 20008KT 150V230 9999 -RA FEW007 SCT008 BKN011 14/14 Q1005 RERA REDZ GRN
  • 161644Z AUTO 20008KT 160V230 6000 +DZRA FEW006 SCT008 BKN009 14/14 Q1005 GRN
  • 161628Z AUTO 20007KT 150V250 9999 DZRA FEW007 BKN008 BKN009 14/14 Q1005 GRN
  • 161625Z AUTO 20007KT 160V230 9999 -RA FEW007 SCT008 BKN009 14/14 Q1005 GRN

TAF TAF EHWO
Valid from the 16 at 09:00 until the 16 at 21:00 UTC


160806Z 1609/1621 17005KT 9999 SCT013 BKN016 BKN025
TEMPO 1609/1618 19012G22KT
TEMPO 1609/1621 4500 -DZRA SCT008 BKN012
PROB40
TEMPO 1610/1621 2000 DZRA FEW004 SCT006 BKN012



MET'MAP, your aeronautical weather chart ! - Copyright ORBIFLY December 2007 - Disclaimer

ORBIFLY MET'MAP TEAM :

Programming & Development : Alexandra Zaïnal
Concept & Development : Baudouin d'Aumeries
Co-Development & Prog : Marc-Olivier Méhu
Technical & hardware support : Manuel Goepfert

Contact : metmap@orbifly.com




SOURCES & CREDITS :

   NOAA